Main page
METAR-TAF:

METAR-TAF

Airports :

Huesca–Pirineos Airport

Huesca, Spain

latitude: 42-04-32N, longitude: 0-18-58W, elevation: 539 m

Current weather observation

The report was made 18 minutes ago, at 08:00 UTC
Wind 5 kt from the East/Southeast, varying between North/Northeast and South/Southeast
Temperature 14°C
Humidity 51%
Pressure 1020 hPa
Visibility 10 km or more
no clouds below 1500 m and no cumulonimbus

METAR: LEHC 180800Z 11005KT 030V160 CAVOK 14/04 Q1020

Time: 10:18 (08:18 UTC)

Forecast

The report was made 6 hours and 18 minutes ago, at 02:00 UTC
Forecast valid from 18 at 03 UTC to 19 at 03 UTC
Wind 5 kt from variable directions
Visibility 10 km or more
Few clouds at a height of 2500 ft
Becoming
from 18 at 12 UTC to 18 at 14 UTC
Wind 10 kt from the West/Northwest
Becoming
from 18 at 22 UTC to 18 at 24 UTC
Wind 3 kt from variable directions

TAF: LEHC 180200Z 1803/1903 VRB05KT 9999 FEW025 TX25/1813Z TN09/1805Z BECMG 1812/1814 29010KT BECMG 1822/1824 VRB03KT

Weather observations and forecasts of more than 4000 airports (METAR and TAF reports).

The available stations are represented by yellow and red dots on the map.

Hover mouse over dot to see the name of the station.

Then click to see weather observations and forecasts.

To change the map : click on the green buttons with a black cross to zoom in, on the green button with a dash to zoom out, or on the green arrows for adjacent maps.


METAR-TAF: